Time;durP1;ratioP1;P1;durP2;ratioP2;P2;SDS_P1;SDS_P2;PMS_P1;PMS_P2;Temp;Humidity;BMP_temperature;BMP_pressure;BME280_temperature;BME280_humidity;BME280_pressure;Samples;Min_cycle;Max_cycle;Signal;HPM_P1;HPM_P2
2022/09/18 00:01:11;;;;;;;3.80;1.70;;;14.60;99.90;;;;;;5036018;28;20124;-90
2022/09/18 00:03:39;;;;;;;4.80;1.30;;;14.60;99.90;;;;;;5052942;28;20025;-90
2022/09/18 00:06:14;;;;;;;5.47;1.55;;;14.60;99.90;;;;;;5048887;28;20024;-90
2022/09/18 00:08:42;;;;;;;6.72;1.75;;;14.60;99.90;;;;;;5035153;28;20116;-90
2022/09/18 00:11:11;;;;;;;1.75;1.50;;;14.60;99.90;;;;;;5020808;28;20067;-91
2022/09/18 00:13:38;;;;;;;3.65;1.58;;;14.60;99.90;;;;;;5038101;28;20028;-91
2022/09/18 00:16:06;;;;;;;4.40;1.40;;;14.60;99.90;;;;;;5029137;28;20029;-90
2022/09/18 00:18:32;;;;;;;3.83;1.20;;;14.60;99.90;;;;;;5016135;28;20036;-90
2022/09/18 00:21:06;;;;;;;2.10;1.23;;;14.60;99.90;;;;;;5039387;28;20216;-89
2022/09/18 00:23:31;;;;;;;;;;;14.60;99.90;;;;;;5028580;28;20091;-90
2022/09/18 00:25:57;;;;;;;3.40;1.95;;;14.60;99.90;;;;;;5038532;28;19987;-89
2022/09/18 00:28:22;;;;;;;3.70;1.65;;;14.60;99.90;;;;;;5020786;28;20822;-89
2022/09/18 00:30:48;;;;;;;4.63;1.55;;;14.60;99.90;;;;;;5035317;28;20123;-90
2022/09/18 00:33:13;;;;;;;1.75;1.30;;;14.60;99.90;;;;;;5035424;28;20029;-89
2022/09/18 00:35:43;;;;;;;6.28;1.77;;;14.60;99.90;;;;;;5050745;28;20411;-89
2022/09/18 00:38:09;;;;;;;7.45;2.25;;;14.60;99.90;;;;;;5044818;28;20033;-89
2022/09/18 00:40:34;;;;;;;3.30;1.77;;;14.60;99.90;;;;;;5049053;28;20847;-89
2022/09/18 00:43:17;;;;;;;6.85;1.65;;;14.60;99.90;;;;;;5036103;28;20036;-89
2022/09/18 00:45:46;;;;;;;4.97;1.58;;;14.60;99.90;;;;;;5031299;28;20025;-88
2022/09/18 00:48:11;;;;;;;4.50;1.52;;;14.60;99.90;;;;;;5046042;28;20494;-89
2022/09/18 00:50:37;;;;;;;5.63;1.77;;;14.60;99.90;;;;;;5035469;28;20040;-89
2022/09/18 00:53:06;;;;;;;7.72;1.48;;;14.60;99.90;;;;;;5051324;28;20071;-90
2022/09/18 00:55:36;;;;;;;4.28;1.17;;;14.60;99.90;;;;;;5032096;28;20025;-89
2022/09/18 00:58:03;;;;;;;3.17;1.30;;;14.50;99.90;;;;;;5015777;28;20026;-90
2022/09/18 01:00:30;;;;;;;3.10;1.45;;;14.50;99.90;;;;;;5019167;28;20486;-89
2022/09/18 01:03:03;;;;;;;6.03;1.65;;;14.60;99.90;;;;;;5036727;28;20091;-89
2022/09/18 01:06:02;;;;;;;6.93;2.23;;;14.60;99.90;;;;;;5051907;28;20128;-89
2022/09/18 01:08:46;;;;;;;6.95;2.53;;;14.60;99.90;;;;;;5037740;28;20075;-89
2022/09/18 01:11:35;;;;;;;4.35;1.67;;;14.50;99.90;;;;;;5023837;28;20084;-89
2022/09/18 01:14:12;;;;;;;2.42;1.42;;;14.50;99.90;;;;;;5035337;28;20029;-89
2022/09/18 01:16:51;;;;;;;4.18;1.90;;;14.60;99.90;;;;;;5043736;28;20028;-89
2022/09/18 01:19:48;;;;;;;4.80;1.45;;;14.60;99.90;;;;;;5034867;28;20029;-89
2022/09/18 01:22:50;;;;;;;4.72;1.85;;;14.50;99.90;;;;;;5034279;28;20103;-89
2022/09/18 01:25:35;;;;;;;5.00;2.20;;;14.50;99.90;;;;;;5038859;28;20487;-89
2022/09/18 01:28:16;;;;;;;6.15;1.95;;;14.50;99.90;;;;;;5014785;28;20064;-89
2022/09/18 01:30:45;;;;;;;4.20;2.30;;;14.50;99.90;;;;;;5032700;28;20259;-88
2022/09/18 01:33:22;;;;;;;4.68;2.05;;;14.50;99.90;;;;;;5014745;28;20487;-89
2022/09/18 01:36:02;;;;;;;6.85;2.17;;;14.50;99.90;;;;;;5032170;28;20630;-88
2022/09/18 01:39:05;;;;;;;2.67;1.70;;;14.50;99.90;;;;;;5014863;28;20036;-89
2022/09/18 01:41:31;;;;;;;3.58;1.55;;;14.50;99.90;;;;;;5041743;28;20074;-89
2022/09/18 01:44:02;;;;;;;3.45;1.70;;;14.50;99.90;;;;;;5037740;28;20033;-88
2022/09/18 01:46:28;;;;;;;3.40;1.70;;;14.50;99.90;;;;;;5014085;28;20108;-89
2022/09/18 01:49:17;;;;;;;4.18;2.10;;;14.50;99.90;;;;;;5029889;28;20029;-89
2022/09/18 01:51:45;;;;;;;4.43;1.60;;;14.50;99.90;;;;;;5041789;28;20113;-88
2022/09/18 01:54:18;;;;;;;4.78;2.00;;;14.50;99.90;;;;;;5052070;28;20029;-89
2022/09/18 01:56:49;;;;;;;4.50;1.90;;;14.50;99.90;;;;;;5033444;28;20021;-88
2022/09/18 01:59:22;;;;;;;7.00;1.88;;;14.50;99.90;;;;;;5050881;28;20773;-88
2022/09/18 02:01:50;;;;;;;4.10;1.83;;;14.50;99.90;;;;;;5027389;28;20056;-89
2022/09/18 02:04:31;;;;;;;3.42;1.55;;;14.50;99.90;;;;;;5043199;28;20037;-88
2022/09/18 02:07:13;;;;;;;4.80;2.00;;;14.50;99.90;;;;;;5039884;28;20029;-88
2022/09/18 02:09:39;;;;;;;4.40;1.92;;;14.50;99.90;;;;;;5051485;28;20032;-89
2022/09/18 02:12:10;;;;;;;2.35;1.58;;;14.50;99.90;;;;;;5006978;28;20033;-89
2022/09/18 02:14:48;;;;;;;1.60;1.50;;;14.50;99.90;;;;;;5034097;28;20044;-89
2022/09/18 02:17:35;;;;;;;3.28;1.80;;;14.50;99.90;;;;;;5033191;28;20036;-90
2022/09/18 02:20:24;;;;;;;4.93;2.00;;;14.50;99.90;;;;;;5031870;28;20052;-89
2022/09/18 02:23:06;;;;;;;6.63;1.95;;;14.50;99.90;;;;;;5013920;28;20029;-89
2022/09/18 02:25:39;;;;;;;2.60;1.50;;;14.50;99.90;;;;;;5029391;28;20086;-89
2022/09/18 02:28:06;;;;;;;5.47;2.40;;;14.50;99.90;;;;;;5033192;28;20440;-89
2022/09/18 02:30:32;;;;;;;2.97;1.58;;;14.50;99.90;;;;;;5033272;28;20028;-89
2022/09/18 02:32:58;;;;;;;3.67;1.70;;;14.50;99.90;;;;;;5032648;28;20036;-89
2022/09/18 02:35:31;;;;;;;3.95;1.85;;;14.50;99.90;;;;;;5030186;28;20025;-89
2022/09/18 02:38:08;;;;;;;4.95;2.10;;;14.40;99.90;;;;;;5017084;28;20545;-89
2022/09/18 02:41:15;;;;;;;3.75;1.85;;;14.50;99.90;;;;;;5032159;28;20079;-89
2022/09/18 02:43:54;;;;;;;3.00;1.83;;;14.50;99.90;;;;;;5033627;28;20028;-89
2022/09/18 02:46:32;;;;;;;3.17;1.88;;;14.50;99.90;;;;;;5023549;28;20043;-89
2022/09/18 02:49:48;;;;;;;5.85;1.92;;;14.50;99.90;;;;;;5028539;28;20095;-89
2022/09/18 02:52:39;;;;;;;4.72;1.60;;;14.50;99.90;;;;;;5034096;28;20121;-88
2022/09/18 02:55:17;;;;;;;3.75;1.80;;;14.50;99.90;;;;;;5030673;28;20479;-89
2022/09/18 02:57:52;;;;;;;6.43;1.77;;;14.50;99.90;;;;;;5013764;28;20030;-89
2022/09/18 03:00:19;;;;;;;4.90;1.90;;;14.40;99.90;;;;;;5049011;28;20495;-88
2022/09/18 03:06:21;;;;;;;3.83;1.90;;;14.40;99.90;;;;;;5046712;28;20075;-91
2022/09/18 03:08:55;;;;;;;2.47;1.52;;;14.40;99.90;;;;;;5032948;28;20037;-91
2022/09/18 03:11:30;;;;;;;5.30;2.00;;;14.50;99.90;;;;;;5024436;28;20033;-91
2022/09/18 03:14:03;;;;;;;3.33;2.05;;;14.50;99.90;;;;;;5013083;28;20034;-91
2022/09/18 03:16:36;;;;;;;3.50;2.22;;;14.40;99.90;;;;;;5012372;28;20499;-91
2022/09/18 03:19:02;;;;;;;3.78;1.80;;;14.50;99.90;;;;;;5031361;28;20107;-91
2022/09/18 03:21:29;;;;;;;6.20;1.80;;;14.40;99.90;;;;;;5034963;22;20040;-83
2022/09/18 03:23:54;;;;;;;5.25;1.73;;;14.40;99.90;;;;;;5075212;28;20055;-83
2022/09/18 03:26:21;;;;;;;6.00;2.35;;;14.40;99.90;;;;;;5082966;28;20060;-83
2022/09/18 03:28:47;;;;;;;2.65;1.80;;;14.40;99.90;;;;;;5080118;28;20452;-81
2022/09/18 03:31:13;;;;;;;4.15;2.05;;;14.40;99.90;;;;;;5087739;28;20059;-82
2022/09/18 03:33:38;;;;;;;3.30;2.33;;;14.40;99.90;;;;;;5093058;28;20541;-82
2022/09/18 03:36:05;;;;;;;2.67;1.70;;;14.40;99.90;;;;;;5087035;28;20032;-83
2022/09/18 03:38:31;;;;;;;3.50;1.73;;;14.40;99.90;;;;;;5082713;28;20036;-82
2022/09/18 03:40:58;;;;;;;2.05;1.60;;;14.40;99.90;;;;;;5083138;28;20135;-83
2022/09/18 03:43:25;;;;;;;2.08;1.45;;;14.40;99.90;;;;;;5087950;28;20025;-83
2022/09/18 03:45:51;;;;;;;5.00;2.30;;;14.40;99.90;;;;;;5076931;28;20523;-82
2022/09/18 03:48:17;;;;;;;3.95;1.88;;;14.40;99.90;;;;;;5084632;28;20043;-83
2022/09/18 03:50:43;;;;;;;5.55;2.08;;;14.40;99.90;;;;;;5080456;28;20021;-82
2022/09/18 03:53:10;;;;;;;3.45;1.65;;;14.40;99.90;;;;;;5075323;28;20021;-82
2022/09/18 03:55:36;;;;;;;3.95;1.63;;;14.40;99.90;;;;;;5088613;28;20399;-82
2022/09/18 03:58:02;;;;;;;6.38;2.30;;;14.40;99.90;;;;;;5086409;28;20142;-82
2022/09/18 04:00:28;;;;;;;7.75;1.95;;;14.40;99.90;;;;;;5079851;28;20434;-82
2022/09/18 04:02:54;;;;;;;2.88;1.85;;;14.40;99.90;;;;;;5080107;28;20027;-82
2022/09/18 04:05:19;;;;;;;3.35;2.20;;;14.40;99.90;;;;;;5096177;28;20478;-82
2022/09/18 04:07:45;;;;;;;4.15;2.08;;;14.40;99.90;;;;;;5092934;28;20050;-82
2022/09/18 04:10:11;;;;;;;2.95;1.75;;;14.40;99.90;;;;;;5085080;28;20032;-82
2022/09/18 04:12:37;;;;;;;2.80;1.50;;;14.40;99.90;;;;;;5063514;28;20504;-82
2022/09/18 04:15:03;;;;;;;3.75;2.25;;;14.40;99.90;;;;;;5092962;28;20020;-83
2022/09/18 04:17:29;;;;;;;7.47;1.85;;;14.40;99.90;;;;;;5092470;28;20391;-83
2022/09/18 04:19:55;;;;;;;2.75;1.92;;;14.40;99.90;;;;;;5087381;28;20305;-83
2022/09/18 04:22:21;;;;;;;6.40;3.42;;;14.40;99.90;;;;;;5078425;28;20175;-81
2022/09/18 04:24:49;;;;;;;5.57;2.67;;;14.40;99.90;;;;;;5085495;28;20024;-82
2022/09/18 04:27:15;;;;;;;4.43;2.38;;;14.40;99.90;;;;;;5082638;28;20073;-82
2022/09/18 04:29:40;;;;;;;7.30;1.77;;;14.40;99.90;;;;;;5080600;28;20088;-82
2022/09/18 04:32:06;;;;;;;4.95;2.08;;;14.40;99.90;;;;;;5096880;28;20119;-83
2022/09/18 04:34:32;;;;;;;5.65;1.90;;;14.40;99.90;;;;;;5089349;28;20024;-83
2022/09/18 04:36:58;;;;;;;3.22;2.20;;;14.40;99.90;;;;;;5080502;28;20504;-83
2022/09/18 04:39:24;;;;;;;2.33;1.77;;;14.40;99.90;;;;;;5081157;28;20029;-83
2022/09/18 04:41:50;;;;;;;4.93;2.13;;;14.40;99.90;;;;;;5084267;28;20290;-83
2022/09/18 04:44:16;;;;;;;5.68;2.05;;;14.40;99.90;;;;;;5086702;28;20032;-82
2022/09/18 04:46:42;;;;;;;7.10;3.53;;;14.40;99.90;;;;;;5095651;28;20039;-83
2022/09/18 04:49:07;;;;;;;4.47;2.20;;;14.40;99.90;;;;;;5088398;28;20030;-83
2022/09/18 04:51:33;;;;;;;4.82;2.00;;;14.40;99.90;;;;;;5080999;28;20042;-82
2022/09/18 04:54:02;;;;;;;2.85;2.05;;;14.40;99.90;;;;;;5088980;28;20522;-82
2022/09/18 04:56:28;;;;;;;5.65;2.00;;;14.40;99.90;;;;;;5087559;28;20024;-82
2022/09/18 04:58:54;;;;;;;3.75;2.35;;;14.40;99.90;;;;;;5086722;28;20046;-83
2022/09/18 05:01:19;;;;;;;5.80;1.90;;;14.40;99.90;;;;;;5085497;28;20035;-83
2022/09/18 05:03:45;;;;;;;6.45;2.67;;;14.40;99.90;;;;;;5087483;28;20032;-83
2022/09/18 05:06:11;;;;;;;3.95;2.25;;;14.40;99.90;;;;;;5094235;28;20039;-82
2022/09/18 05:08:37;;;;;;;3.47;2.00;;;14.40;99.90;;;;;;5092981;28;20023;-82
2022/09/18 05:11:03;;;;;;;3.05;2.10;;;14.40;99.90;;;;;;5091819;28;20024;-82
2022/09/18 05:13:29;;;;;;;3.83;2.47;;;14.40;99.90;;;;;;5087362;28;20085;-83
2022/09/18 05:15:56;;;;;;;2.70;2.10;;;14.40;99.90;;;;;;5087573;28;20020;-83
2022/09/18 05:18:22;;;;;;;5.15;2.28;;;14.40;99.90;;;;;;5079331;28;20059;-83
2022/09/18 05:20:47;;;;;;;2.42;2.00;;;14.40;99.90;;;;;;5089876;28;20024;-82
2022/09/18 05:23:14;;;;;;;6.53;2.13;;;14.40;99.90;;;;;;5082157;28;20380;-83
2022/09/18 05:25:43;;;;;;;4.97;2.00;;;14.30;99.90;;;;;;5083705;28;20534;-83
2022/09/18 05:28:09;;;;;;;3.30;2.33;;;14.40;99.90;;;;;;5092864;28;20028;-83
2022/09/18 05:30:35;;;;;;;3.35;2.55;;;14.30;99.90;;;;;;5078703;28;20068;-83
2022/09/18 05:33:03;;;;;;;2.85;2.13;;;14.40;99.90;;;;;;5089869;28;20356;-83
2022/09/18 05:35:31;;;;;;;5.22;2.17;;;14.30;99.90;;;;;;5095688;28;20020;-83
2022/09/18 05:38:00;;;;;;;3.28;2.30;;;14.30;99.90;;;;;;5095663;28;20127;-83
2022/09/18 05:40:30;;;;;;;4.75;2.15;;;14.30;99.90;;;;;;5085373;28;20052;-83
2022/09/18 05:42:56;;;;;;;4.57;2.60;;;14.30;99.90;;;;;;5089590;28;20032;-83
2022/09/18 05:45:22;;;;;;;3.22;1.90;;;14.30;99.90;;;;;;5075075;28;20047;-83
2022/09/18 05:47:58;;;;;;;4.95;2.10;;;14.30;99.90;;;;;;5081507;28;20108;-83
2022/09/18 05:50:26;;;;;;;2.85;2.13;;;14.30;99.90;;;;;;5091670;28;20019;-83
2022/09/18 05:53:04;;;;;;;4.47;1.98;;;14.30;99.90;;;;;;5088136;28;20035;-83
2022/09/18 05:55:30;;;;;;;4.18;2.40;;;14.30;99.90;;;;;;5079191;28;20032;-83
2022/09/18 05:57:57;;;;;;;4.53;1.98;;;14.30;99.90;;;;;;5081253;28;20650;-82
2022/09/18 06:00:27;;;;;;;4.53;3.00;;;14.30;99.90;;;;;;5088863;28;20028;-82
2022/09/18 06:02:59;;;;;;;3.88;2.28;;;14.30;99.90;;;;;;5083307;28;20078;-82
2022/09/18 06:05:26;;;;;;;4.03;2.35;;;14.30;99.90;;;;;;5085721;28;20052;-82
2022/09/18 06:07:51;;;;;;;3.08;2.30;;;14.40;99.90;;;;;;5092671;28;20028;-82
2022/09/18 06:10:19;;;;;;;3.25;2.30;;;14.40;99.90;;;;;;5093703;28;20024;-82
2022/09/18 06:12:45;;;;;;;2.80;2.33;;;14.40;99.90;;;;;;5078921;28;20710;-82
2022/09/18 06:15:12;;;;;;;2.85;2.55;;;14.40;99.90;;;;;;5090609;28;20034;-82
2022/09/18 06:17:39;;;;;;;3.33;2.00;;;14.40;99.90;;;;;;5091983;28;20020;-83
2022/09/18 06:20:07;;;;;;;3.20;2.20;;;14.40;99.90;;;;;;5076063;28;20017;-83
2022/09/18 06:22:37;;;;;;;7.05;2.83;;;14.40;99.90;;;;;;5082676;28;20434;-82
2022/09/18 06:25:04;;;;;;;3.83;2.65;;;14.40;99.90;;;;;;5072432;28;20526;-83
2022/09/18 06:27:29;;;;;;;6.18;2.15;;;14.40;99.90;;;;;;5073428;28;20081;-82
2022/09/18 06:29:55;;;;;;;3.08;2.45;;;14.40;99.90;;;;;;5072327;28;20024;-83
2022/09/18 06:32:21;;;;;;;4.30;2.60;;;14.40;99.90;;;;;;5076204;28;20029;-82
2022/09/18 06:34:48;;;;;;;2.70;2.33;;;14.30;99.90;;;;;;5072824;28;20540;-83
2022/09/18 06:37:14;;;;;;;5.18;2.50;;;14.30;99.90;;;;;;5075232;28;20116;-83
2022/09/18 06:39:40;;;;;;;4.68;2.25;;;14.30;99.90;;;;;;5093593;28;20066;-83
2022/09/18 06:42:06;;;;;;;3.42;2.25;;;14.30;99.90;;;;;;5078599;28;20101;-83
2022/09/18 06:44:32;;;;;;;2.83;1.75;;;14.40;99.90;;;;;;5074557;28;20055;-82
2022/09/18 06:46:58;;;;;;;2.80;2.42;;;14.30;99.90;;;;;;5073504;28;20057;-83
2022/09/18 06:49:24;;;;;;;4.53;1.98;;;14.40;99.90;;;;;;5074294;28;20035;-84
2022/09/18 06:51:50;;;;;;;4.13;2.17;;;14.40;99.90;;;;;;5093642;28;20501;-83
2022/09/18 06:54:16;;;;;;;5.88;2.25;;;14.30;99.90;;;;;;5093527;28;20024;-82
2022/09/18 06:56:42;;;;;;;6.70;2.63;;;14.30;99.90;;;;;;5092669;28;20020;-83
2022/09/18 06:59:08;;;;;;;4.13;2.10;;;14.40;99.90;;;;;;5093618;28;20491;-84
2022/09/18 07:01:34;;;;;;;4.03;2.67;;;14.30;99.90;;;;;;5086064;28;20021;-83
2022/09/18 07:04:00;;;;;;;3.75;2.08;;;14.30;99.90;;;;;;5077555;28;20387;-83
2022/09/18 07:06:26;;;;;;;9.00;2.40;;;14.30;99.90;;;;;;5090260;28;20134;-82
2022/09/18 07:08:52;;;;;;;3.58;2.20;;;14.30;99.90;;;;;;5089848;28;20097;-82
2022/09/18 07:11:18;;;;;;;6.35;2.35;;;14.30;99.90;;;;;;5070939;28;20628;-83
2022/09/18 07:13:45;;;;;;;3.60;2.20;;;14.40;99.90;;;;;;5071112;28;20036;-83
2022/09/18 07:16:11;;;;;;;4.22;1.90;;;14.40;99.90;;;;;;5075182;28;20033;-82
2022/09/18 07:18:36;;;;;;;2.85;1.92;;;14.40;99.90;;;;;;5098615;28;20017;-83
2022/09/18 07:21:02;;;;;;;4.65;2.30;;;14.40;99.90;;;;;;5070767;28;20051;-82
2022/09/18 07:23:30;;;;;;;3.50;2.40;;;14.30;99.90;;;;;;5071538;28;20032;-83
2022/09/18 07:25:59;;;;;;;3.17;1.85;;;14.30;99.90;;;;;;5072573;28;20108;-83
2022/09/18 07:28:24;;;;;;;4.78;2.08;;;14.30;99.90;;;;;;5089247;28;20036;-83
2022/09/18 07:30:50;;;;;;;4.63;1.88;;;14.30;99.90;;;;;;5086167;28;20032;-83
2022/09/18 07:33:16;;;;;;;4.28;2.20;;;14.30;99.90;;;;;;5091196;28;20627;-83
2022/09/18 07:35:42;;;;;;;3.33;2.08;;;14.30;99.90;;;;;;5087446;28;20033;-83
2022/09/18 07:38:08;;;;;;;4.80;2.38;;;14.30;99.90;;;;;;5080725;28;20021;-81
2022/09/18 07:40:35;;;;;;;6.88;2.40;;;14.30;99.90;;;;;;5081639;28;20019;-82
2022/09/18 07:43:07;;;;;;;5.07;2.35;;;14.30;99.90;;;;;;5090577;28;20040;-81
2022/09/18 07:45:34;;;;;;;6.35;1.98;;;14.30;99.90;;;;;;5083431;28;20029;-80
2022/09/18 07:48:04;;;;;;;4.93;1.83;;;14.30;99.90;;;;;;5090314;28;20032;-81
2022/09/18 07:50:30;;;;;;;3.33;2.15;;;14.30;99.90;;;;;;5087203;28;20031;-82
2022/09/18 07:52:58;;;;;;;6.85;2.35;;;14.40;99.90;;;;;;5086097;28;20055;-82
2022/09/18 07:55:25;;;;;;;2.97;1.98;;;14.40;99.90;;;;;;5077672;28;20024;-81
2022/09/18 07:58:00;;;;;;;6.68;1.70;;;14.40;99.90;;;;;;5085217;28;20465;-82
2022/09/18 08:00:28;;;;;;;4.50;1.92;;;14.40;99.90;;;;;;5086813;28;20024;-82
2022/09/18 08:03:08;;;;;;;3.67;1.95;;;14.40;99.90;;;;;;5088587;28;20064;-82
2022/09/18 08:05:34;;;;;;;4.78;1.75;;;14.40;99.90;;;;;;5087345;28;20020;-81
2022/09/18 08:08:05;;;;;;;2.90;2.42;;;14.40;99.90;;;;;;5092876;28;20468;-82
2022/09/18 08:10:35;;;;;;;8.23;2.55;;;14.40;99.90;;;;;;5080732;28;20032;-82
2022/09/18 08:13:01;;;;;;;6.18;2.75;;;14.40;99.90;;;;;;5083084;28;20158;-82
2022/09/18 08:15:28;;;;;;;7.47;2.30;;;14.40;99.90;;;;;;5085400;28;20027;-82
2022/09/18 08:17:54;;;;;;;3.38;1.92;;;14.40;99.90;;;;;;5075974;28;20031;-82
2022/09/18 08:20:20;;;;;;;5.63;2.08;;;14.30;99.90;;;;;;5075991;28;20119;-82
2022/09/18 08:22:47;;;;;;;3.78;2.00;;;14.40;99.90;;;;;;5095998;28;20043;-81
2022/09/18 08:25:13;;;;;;;4.00;2.08;;;14.40;99.90;;;;;;5088025;28;20426;-82
2022/09/18 08:27:40;;;;;;;5.15;2.17;;;14.40;99.90;;;;;;5085131;28;20021;-82
2022/09/18 08:30:08;;;;;;;3.92;1.95;;;14.40;99.90;;;;;;5093166;28;20036;-83
2022/09/18 08:32:35;;;;;;;3.53;2.20;;;14.40;99.90;;;;;;5084592;28;20028;-81
2022/09/18 08:35:01;;;;;;;5.15;1.95;;;14.30;99.90;;;;;;5098944;28;20016;-82
2022/09/18 08:37:28;;;;;;;7.90;2.28;;;14.40;99.90;;;;;;5080481;28;20024;-82
2022/09/18 08:39:54;;;;;;;5.88;2.20;;;14.40;99.90;;;;;;5085982;28;20088;-82
2022/09/18 08:42:35;;;;;;;5.50;2.25;;;14.40;99.90;;;;;;5085770;28;20024;-81
2022/09/18 08:45:16;;;;;;;5.07;1.90;;;14.40;99.90;;;;;;5083968;28;20365;-83
2022/09/18 08:47:53;;;;;;;6.85;2.45;;;14.30;99.90;;;;;;5085237;28;20020;-81
2022/09/18 08:50:27;;;;;;;8.02;2.13;;;14.30;99.90;;;;;;5084197;28;20048;-82
2022/09/18 08:53:14;;;;;;;3.38;2.05;;;14.30;99.90;;;;;;5087540;28;20375;-81
2022/09/18 08:55:43;;;;;;;5.93;2.15;;;14.30;99.90;;;;;;5081305;28;20408;-82
2022/09/18 08:58:33;;;;;;;6.10;2.55;;;14.30;99.90;;;;;;5083417;28;20035;-81
2022/09/18 09:01:05;;;;;;;4.78;2.95;;;14.30;99.90;;;;;;5087389;28;20050;-80
2022/09/18 09:03:40;;;;;;;13.80;7.20;;;14.30;99.90;;;;;;5076430;28;20546;-82
2022/09/18 09:06:25;;;;;;;16.25;8.68;;;14.30;99.90;;;;;;5082756;28;20029;-82
2022/09/18 09:09:21;;;;;;;11.77;7.38;;;14.30;99.90;;;;;;5083714;28;20043;-82
2022/09/18 09:12:26;;;;;;;11.32;7.55;;;14.30;99.90;;;;;;5080378;28;20027;-81
2022/09/18 09:15:04;;;;;;;14.15;7.75;;;14.30;99.90;;;;;;5086747;28;20074;-81
2022/09/18 09:17:49;;;;;;;14.02;7.30;;;14.30;99.90;;;;;;5091767;28;20063;-81
2022/09/18 09:20:21;;;;;;;10.90;6.28;;;14.30;99.90;;;;;;5094479;28;20027;-82
2022/09/18 09:23:16;;;;;;;9.00;6.05;;;14.30;99.90;;;;;;5091127;28;20039;-81
2022/09/18 09:25:58;;;;;;;11.35;6.38;;;14.40;99.90;;;;;;5085187;28;20126;-82
2022/09/18 09:28:36;;;;;;;8.70;5.38;;;14.40;99.90;;;;;;5090448;28;20055;-81
2022/09/18 09:31:07;;;;;;;9.90;5.22;;;14.40;99.90;;;;;;5085540;28;20368;-81
2022/09/18 09:33:41;;;;;;;9.10;5.30;;;14.40;99.90;;;;;;5089141;28;20020;-81
2022/09/18 09:36:14;;;;;;;9.90;5.63;;;14.30;99.90;;;;;;5088819;28;20035;-81
2022/09/18 09:38:56;;;;;;;7.85;5.30;;;14.40;99.90;;;;;;5088858;28;20020;-81
2022/09/18 09:41:40;;;;;;;10.30;5.47;;;14.30;99.90;;;;;;5084195;28;20115;-81
2022/09/18 09:44:32;;;;;;;;;;;14.30;99.90;;;;;;5092616;28;20024;-81
2022/09/18 09:47:34;;;;;;;5.07;4.07;;;14.30;99.90;;;;;;5090585;28;19908;-82
2022/09/18 09:50:18;;;;;;;7.50;4.45;;;14.30;99.90;;;;;;5079111;28;20040;-82
2022/09/18 09:52:46;;;;;;;5.18;4.03;;;14.40;99.90;;;;;;5077091;28;20028;-83
2022/09/18 09:55:18;;;;;;;7.10;4.15;;;14.40;99.90;;;;;;5086009;28;20107;-82
2022/09/18 09:58:23;;;;;;;6.05;4.30;;;14.30;99.90;;;;;;5078915;28;20511;-83
2022/09/18 10:00:54;;;;;;;9.18;4.78;;;14.30;99.90;;;;;;5087421;28;20038;-84
2022/09/18 10:03:51;;;;;;;8.57;3.97;;;14.40;99.90;;;;;;5087459;28;20028;-84
2022/09/18 10:06:23;;;;;;;5.72;4.28;;;14.40;99.90;;;;;;5088305;28;20023;-84
2022/09/18 10:09:23;;;;;;;6.70;4.07;;;14.40;99.90;;;;;;5092237;28;20024;-83
2022/09/18 10:12:16;;;;;;;5.43;4.18;;;14.40;99.90;;;;;;5073230;28;20142;-83
2022/09/18 10:14:45;;;;;;;8.07;4.03;;;14.30;99.90;;;;;;5086418;28;20032;-83
2022/09/18 10:17:14;;;;;;;7.53;4.82;;;14.40;99.90;;;;;;5084684;28;20033;-82
2022/09/18 10:19:42;;;;;;;9.32;3.90;;;14.40;99.90;;;;;;5087531;28;20154;-82
2022/09/18 10:22:14;;;;;;;5.68;3.60;;;14.30;99.90;;;;;;5087815;28;20032;-83
2022/09/18 10:24:49;;;;;;;5.97;4.03;;;14.40;99.90;;;;;;5088912;28;20028;-83
2022/09/18 10:27:16;;;;;;;5.10;3.47;;;14.40;99.90;;;;;;5082661;28;20024;-83
2022/09/18 10:29:42;;;;;;;6.72;3.53;;;14.40;99.90;;;;;;5087094;28;20491;-83
2022/09/18 10:32:12;;;;;;;5.50;4.15;;;14.40;99.90;;;;;;5061178;28;20041;-83
2022/09/18 10:34:49;;;;;;;6.10;3.42;;;14.40;99.90;;;;;;5080687;28;20407;-84
2022/09/18 10:37:35;;;;;;;4.57;3.80;;;14.40;99.90;;;;;;5090083;28;20054;-82
2022/09/18 10:40:03;;;;;;;8.75;5.03;;;14.40;99.90;;;;;;5081217;28;20032;-81
2022/09/18 10:42:31;;;;;;;4.75;4.10;;;14.40;99.90;;;;;;5091083;28;20023;-82
2022/09/18 10:45:04;;;;;;;5.13;4.47;;;14.40;99.90;;;;;;5087390;28;20091;-82
2022/09/18 10:47:35;;;;;;;6.78;3.95;;;14.40;99.90;;;;;;5080493;28;20477;-82
2022/09/18 10:50:05;;;;;;;8.00;5.32;;;14.40;99.90;;;;;;5085933;28;20455;-83
2022/09/18 10:53:41;;;;;;;11.13;5.47;;;14.40;99.90;;;;;;5085311;28;20024;-83
2022/09/18 10:56:18;;;;;;;11.02;5.97;;;14.40;99.90;;;;;;5023908;28;20067;-82
2022/09/18 10:58:44;;;;;;;8.60;5.43;;;14.40;99.90;;;;;;5026016;28;20041;-82
2022/09/18 11:01:12;;;;;;;8.95;6.00;;;14.40;99.90;;;;;;5056361;28;20040;-82
2022/09/18 11:03:46;;;;;;;9.70;6.05;;;14.40;99.90;;;;;;5083836;28;20111;-81
2022/09/18 11:06:17;;;;;;;;;;;14.40;99.90;;;;;;5084929;28;20028;-83
2022/09/18 11:08:47;;;;;;;10.13;6.18;;;14.40;99.90;;;;;;5092077;28;20003;-81
2022/09/18 11:11:23;;;;;;;10.32;6.10;;;14.40;99.90;;;;;;5085537;28;20106;-81
2022/09/18 11:14:02;;;;;;;10.90;5.80;;;14.40;99.90;;;;;;5086824;28;20103;-82
2022/09/18 11:16:31;;;;;;;11.63;5.45;;;14.40;99.90;;;;;;5085316;28;20044;-81
2022/09/18 11:19:06;;;;;;;7.55;5.07;;;14.40;99.90;;;;;;5084859;28;20024;-81
2022/09/18 11:21:32;;;;;;;10.75;4.72;;;14.40;99.90;;;;;;5088563;28;20065;-81
2022/09/18 11:24:05;;;;;;;7.60;4.78;;;14.40;99.90;;;;;;5090719;28;20024;-80
2022/09/18 11:26:31;;;;;;;8.23;4.72;;;14.40;99.90;;;;;;5085408;28;20029;-80
2022/09/18 11:28:57;;;;;;;8.85;4.55;;;14.40;99.90;;;;;;5090484;28;20031;-81
2022/09/18 11:31:23;;;;;;;7.68;4.53;;;14.40;99.90;;;;;;5090336;28;20270;-82
2022/09/18 11:33:55;;;;;;;6.75;4.40;;;14.40;99.90;;;;;;5083199;28;20189;-82
2022/09/18 11:36:27;;;;;;;5.95;3.80;;;14.40;99.90;;;;;;5084658;28;20028;-81
2022/09/18 11:38:54;;;;;;;7.18;4.15;;;14.40;99.90;;;;;;5086984;28;20024;-81
2022/09/18 11:41:32;;;;;;;6.80;4.10;;;14.40;99.90;;;;;;5095330;28;20119;-81
2022/09/18 11:44:32;;;;;;;6.35;4.15;;;14.40;99.90;;;;;;5093104;28;20471;-81
2022/09/18 11:47:18;;;;;;;4.15;3.13;;;14.40;99.90;;;;;;5085987;28;20020;-82
2022/09/18 11:50:10;;;;;;;5.85;3.65;;;14.50;99.90;;;;;;5074772;28;20028;-82
2022/09/18 11:52:47;;;;;;;7.40;3.50;;;14.50;99.90;;;;;;5081831;28;20036;-82
2022/09/18 11:55:32;;;;;;;6.47;3.05;;;14.40;99.90;;;;;;5084990;28;20121;-82
2022/09/18 11:58:16;;;;;;;6.82;4.20;;;14.50;99.90;;;;;;5087832;28;20028;-81
2022/09/18 12:00:50;;;;;;;5.28;3.10;;;14.40;99.90;;;;;;5091778;28;20031;-81
2022/09/18 12:03:19;;;;;;;;;;;14.40;99.90;;;;;;5091689;28;20020;-82
2022/09/18 12:06:09;;;;;;;6.43;3.47;;;14.40;99.90;;;;;;5085977;28;19939;-82
2022/09/18 12:08:50;;;;;;;4.85;3.05;;;14.40;99.90;;;;;;5086055;28;20257;-82
2022/09/18 12:11:36;;;;;;;5.78;2.97;;;14.40;99.90;;;;;;5093136;28;20024;-81
2022/09/18 12:14:24;;;;;;;5.57;3.10;;;14.40;99.90;;;;;;5091691;28;20084;-81
2022/09/18 12:16:59;;;;;;;6.65;3.42;;;14.40;99.90;;;;;;5098402;28;20090;-83
2022/09/18 12:19:41;;;;;;;5.35;3.08;;;14.40;99.90;;;;;;5086896;28;20021;-83
2022/09/18 12:22:13;;;;;;;4.78;3.00;;;14.40;99.90;;;;;;5097039;28;20028;-82
2022/09/18 12:24:39;;;;;;;4.40;2.65;;;14.40;99.90;;;;;;5084900;28;20063;-82
2022/09/18 12:27:20;;;;;;;10.25;3.00;;;14.40;99.90;;;;;;5082923;28;20074;-81
2022/09/18 12:30:07;;;;;;;3.60;2.65;;;14.40;99.90;;;;;;5087117;28;20031;-83
2022/09/18 12:32:46;;;;;;;5.70;3.22;;;14.40;99.90;;;;;;5081047;28;20028;-81
2022/09/18 12:35:39;;;;;;;3.92;2.80;;;14.50;99.90;;;;;;5080408;28;20020;-83
2022/09/18 12:38:21;;;;;;;7.40;4.07;;;14.40;99.90;;;;;;5092231;28;20484;-82
2022/09/18 12:41:13;;;;;;;4.75;2.72;;;14.50;99.90;;;;;;5090462;28;20539;-82
2022/09/18 12:43:51;;;;;;;5.45;2.97;;;14.40;99.90;;;;;;5080973;28;20066;-81
2022/09/18 12:46:43;;;;;;;14.85;2.97;;;14.40;99.90;;;;;;5086352;28;20024;-81
2022/09/18 12:49:26;;;;;;;3.70;3.00;;;14.50;99.90;;;;;;5080049;28;20040;-82
2022/09/18 12:52:10;;;;;;;7.78;2.40;;;14.50;99.90;;;;;;5076213;28;20017;-82
2022/09/18 12:55:09;;;;;;;3.35;2.20;;;14.40;99.90;;;;;;5086201;28;20492;-81
2022/09/18 12:57:45;;;;;;;7.00;3.03;;;14.40;99.90;;;;;;5080446;28;20085;-83
2022/09/18 13:00:15;;;;;;;4.55;2.40;;;14.40;99.90;;;;;;5103969;28;20035;-82
2022/09/18 13:02:41;;;;;;;3.72;2.47;;;14.40;99.90;;;;;;5086556;28;20032;-81
2022/09/18 13:05:19;;;;;;;5.47;2.70;;;14.40;99.90;;;;;;5079343;28;20078;-83
2022/09/18 13:07:55;;;;;;;3.70;2.88;;;14.40;99.90;;;;;;5086799;28;20110;-85
2022/09/18 13:10:38;;;;;;;6.70;2.75;;;14.40;99.90;;;;;;5086404;28;20024;-82
2022/09/18 13:13:22;;;;;;;3.42;2.35;;;14.40;99.90;;;;;;5082540;28;20536;-82
2022/09/18 13:16:02;;;;;;;5.18;2.78;;;14.40;99.90;;;;;;5085147;28;20034;-82
2022/09/18 13:19:04;;;;;;;5.53;2.22;;;14.40;99.90;;;;;;5089457;28;20040;-84
2022/09/18 13:21:45;;;;;;;6.72;2.28;;;14.40;99.90;;;;;;5077778;28;20089;-81